createdAt,value
2023-06-08T00:00:05.305Z,0.00
2023-06-08T00:00:35.012Z,0.00
2023-06-08T00:01:05.020Z,0.00
2023-06-08T00:01:35.021Z,0.00
2023-06-08T00:02:05.018Z,0.00
2023-06-08T00:02:35.065Z,0.00
2023-06-08T00:03:05.103Z,0.00
2023-06-08T00:03:35.116Z,0.00
2023-06-08T00:04:05.012Z,0.00
2023-06-08T00:04:35.270Z,0.00
2023-06-08T00:05:05.117Z,0.00
2023-06-08T00:05:35.024Z,0.00
2023-06-08T00:06:04.996Z,0.00
2023-06-08T00:06:34.963Z,0.00
2023-06-08T00:07:04.975Z,0.00
2023-06-08T00:07:35.080Z,0.00
2023-06-08T00:08:05.142Z,0.00
2023-06-08T00:08:34.949Z,0.00
2023-06-08T00:09:04.947Z,0.00
2023-06-08T00:09:34.946Z,0.00
2023-06-08T00:10:05.658Z,0.00
2023-06-08T00:10:34.951Z,0.00
2023-06-08T00:11:04.924Z,0.00
2023-06-08T00:11:34.910Z,0.00
2023-06-08T00:12:04.902Z,0.00
2023-06-08T00:12:34.884Z,0.00
2023-06-08T00:13:04.886Z,0.00
2023-06-08T00:13:34.914Z,0.00
2023-06-08T00:14:04.879Z,0.00
2023-06-08T00:14:34.914Z,0.00
2023-06-08T00:15:04.883Z,0.00
2023-06-08T00:15:34.880Z,0.00
2023-06-08T00:16:04.882Z,0.00
2023-06-08T00:16:34.872Z,0.00
2023-06-08T00:17:04.909Z,0.00
2023-06-08T00:17:35.054Z,0.00
2023-06-08T00:18:04.946Z,0.00
2023-06-08T00:18:34.915Z,0.00
2023-06-08T00:19:04.897Z,0.00
2023-06-08T00:19:34.876Z,0.00
2023-06-08T00:20:05.136Z,0.00
2023-06-08T00:20:34.841Z,0.00
2023-06-08T00:21:04.876Z,0.00
2023-06-08T00:21:34.977Z,0.00
2023-06-08T00:22:05.061Z,0.00
2023-06-08T00:22:34.979Z,0.00
2023-06-08T00:23:04.848Z,0.00
2023-06-08T00:23:34.903Z,0.00
2023-06-08T00:24:04.854Z,0.00
2023-06-08T00:24:34.781Z,0.00
2023-06-08T00:25:04.774Z,0.00
2023-06-08T00:25:34.753Z,0.00
2023-06-08T00:26:04.759Z,0.00
2023-06-08T00:26:34.772Z,0.00
2023-06-08T00:27:04.763Z,0.00
2023-06-08T00:27:34.766Z,0.00
2023-06-08T00:28:04.794Z,0.00
2023-06-08T00:28:34.735Z,0.00
2023-06-08T00:29:04.790Z,0.00
2023-06-08T00:29:34.747Z,0.00
2023-06-08T00:30:05.134Z,0.00
2023-06-08T00:30:34.741Z,0.00
2023-06-08T00:31:04.693Z,0.00
2023-06-08T00:31:34.758Z,0.00
2023-06-08T00:32:04.862Z,0.00
2023-06-08T00:32:34.760Z,0.00
2023-06-08T00:33:04.822Z,0.00
2023-06-08T00:33:34.684Z,0.00
2023-06-08T00:34:04.709Z,0.00
2023-06-08T00:34:34.709Z,0.00
2023-06-08T00:35:04.676Z,0.00
2023-06-08T00:35:34.804Z,0.00
2023-06-08T00:36:04.856Z,0.00
2023-06-08T00:36:34.652Z,0.00
2023-06-08T00:37:04.655Z,0.00
2023-06-08T00:37:34.632Z,0.00
2023-06-08T00:38:04.743Z,0.00
2023-06-08T00:38:34.637Z,0.00
2023-06-08T00:39:04.625Z,0.00
2023-06-08T00:39:34.614Z,0.00
2023-06-08T00:40:04.960Z,0.00
2023-06-08T00:40:34.640Z,0.00
2023-06-08T00:41:04.637Z,0.00
2023-06-08T00:41:34.604Z,0.00
2023-06-08T00:42:04.657Z,0.00
2023-06-08T00:42:34.703Z,0.00
2023-06-08T00:43:04.579Z,0.00
2023-06-08T00:43:34.574Z,0.00
2023-06-08T00:44:04.609Z,0.00
2023-06-08T00:44:34.579Z,0.00
2023-06-08T00:45:04.562Z,0.00
2023-06-08T00:45:34.589Z,0.00
2023-06-08T00:46:04.627Z,0.00
2023-06-08T00:46:34.678Z,0.00
2023-06-08T00:47:04.573Z,0.00
2023-06-08T00:47:34.635Z,0.00
2023-06-08T00:48:05.136Z,0.00
2023-06-08T00:48:34.551Z,0.00
2023-06-08T00:49:04.517Z,0.00
2023-06-08T00:49:34.637Z,0.00
2023-06-08T00:50:04.979Z,0.00
2023-06-08T00:50:34.536Z,0.00
2023-06-08T00:51:04.528Z,0.00
2023-06-08T00:51:34.543Z,0.00
2023-06-08T00:52:04.527Z,0.00
2023-06-08T00:52:34.519Z,0.00
2023-06-08T00:53:04.484Z,0.00
2023-06-08T00:53:34.476Z,0.00
2023-06-08T00:54:04.529Z,0.00
2023-06-08T00:54:34.467Z,0.00
2023-06-08T00:55:04.452Z,0.00
2023-06-08T00:55:34.470Z,0.00
2023-06-08T00:56:04.502Z,0.00
2023-06-08T00:56:34.466Z,0.00
2023-06-08T00:57:04.436Z,0.00
2023-06-08T00:57:34.480Z,0.00
2023-06-08T00:58:04.469Z,0.00
2023-06-08T00:58:34.468Z,0.00
2023-06-08T00:59:04.439Z,0.00
2023-06-08T00:59:34.484Z,0.00
2023-06-08T01:00:04.775Z,0.00
2023-06-08T01:00:34.434Z,0.00
2023-06-08T01:01:04.455Z,0.00
2023-06-08T01:01:34.457Z,0.00
2023-06-08T01:02:04.418Z,0.00
2023-06-08T01:02:34.456Z,0.00
2023-06-08T01:03:04.642Z,0.00
2023-06-08T01:03:34.526Z,0.00
2023-06-08T01:04:04.679Z,0.00
2023-06-08T01:04:34.465Z,0.00
2023-06-08T01:05:04.355Z,0.00
2023-06-08T01:05:34.417Z,0.00
2023-06-08T01:06:04.421Z,0.00
2023-06-08T01:06:34.333Z,0.00
2023-06-08T01:07:04.437Z,0.00
2023-06-08T01:07:34.339Z,0.00
2023-06-08T01:08:04.339Z,0.00
2023-06-08T01:08:34.354Z,0.00
2023-06-08T01:09:04.320Z,0.00
2023-06-08T01:09:34.312Z,0.00
2023-06-08T01:10:04.560Z,0.00
2023-06-08T01:10:34.322Z,0.00
2023-06-08T01:11:04.292Z,0.00
2023-06-08T01:11:34.292Z,0.00
2023-06-08T01:12:04.265Z,0.00
2023-06-08T01:12:34.264Z,0.00
2023-06-08T01:13:04.305Z,0.00
2023-06-08T01:13:34.273Z,0.00
2023-06-08T01:14:04.267Z,0.00
2023-06-08T01:14:34.261Z,0.00
2023-06-08T01:15:04.291Z,0.00
2023-06-08T01:15:34.273Z,0.00
2023-06-08T01:16:04.250Z,0.00
2023-06-08T01:16:34.507Z,0.00
2023-06-08T01:17:06.336Z,0.00
2023-06-08T01:17:42.405Z,0.00
2023-06-08T01:18:04.450Z,0.00
2023-06-08T01:18:34.243Z,0.00
2023-06-08T01:19:04.193Z,0.00
2023-06-08T01:19:34.220Z,0.00
2023-06-08T01:20:04.399Z,0.00
2023-06-08T01:20:34.198Z,0.00
2023-06-08T01:21:04.199Z,0.00
2023-06-08T01:21:34.209Z,0.00
2023-06-08T01:22:04.175Z,0.00
2023-06-08T01:22:34.177Z,0.00
2023-06-08T01:23:04.190Z,0.00
2023-06-08T01:23:34.267Z,0.00
2023-06-08T01:24:04.205Z,0.00
2023-06-08T01:24:34.171Z,0.00
2023-06-08T01:25:04.153Z,0.00
2023-06-08T01:25:35.093Z,0.00
2023-06-08T01:26:04.138Z,0.00
2023-06-08T01:26:34.116Z,0.00
2023-06-08T01:27:04.155Z,0.00
2023-06-08T01:27:34.123Z,0.00
2023-06-08T01:28:04.106Z,0.00
2023-06-08T01:28:34.128Z,0.00
2023-06-08T01:29:04.162Z,0.00
2023-06-08T01:29:34.090Z,0.00
2023-06-08T01:30:04.428Z,0.00
2023-06-08T01:30:34.129Z,0.00
2023-06-08T01:31:04.201Z,0.00
2023-06-08T01:31:34.229Z,0.00
2023-06-08T01:32:04.302Z,0.00
2023-06-08T01:32:34.099Z,0.00
2023-06-08T01:33:04.140Z,0.00
2023-06-08T01:33:34.048Z,0.00
2023-06-08T01:34:04.083Z,0.00
2023-06-08T01:34:34.045Z,0.00
2023-06-08T01:35:04.029Z,0.00
2023-06-08T01:35:34.050Z,0.00
2023-06-08T01:36:04.024Z,0.00
2023-06-08T01:36:34.014Z,0.00
2023-06-08T01:37:04.010Z,0.00
2023-06-08T01:37:34.016Z,0.00
2023-06-08T01:38:04.042Z,0.00
2023-06-08T01:38:33.995Z,0.00
2023-06-08T01:39:04.022Z,0.00
2023-06-08T01:39:34.009Z,0.00
2023-06-08T01:40:04.366Z,0.00
2023-06-08T01:40:33.980Z,0.00
2023-06-08T01:41:04.595Z,0.00
2023-06-08T01:41:33.972Z,0.00
2023-06-08T01:42:03.958Z,0.00
2023-06-08T01:42:33.969Z,0.00
2023-06-08T01:43:03.960Z,0.00
2023-06-08T01:43:33.972Z,0.00
2023-06-08T01:44:03.973Z,0.00
2023-06-08T01:44:33.925Z,0.00
2023-06-08T01:45:03.977Z,0.00
2023-06-08T01:45:34.066Z,0.00
2023-06-08T01:46:04.194Z,0.00
2023-06-08T01:46:33.976Z,0.00
2023-06-08T01:47:04.062Z,0.00
2023-06-08T01:47:33.972Z,0.00
2023-06-08T01:48:04.016Z,0.00
2023-06-08T01:48:33.879Z,0.00
2023-06-08T01:49:03.903Z,0.00
2023-06-08T01:49:33.897Z,0.00
2023-06-08T01:50:04.208Z,0.00
2023-06-08T01:50:33.894Z,0.00
2023-06-08T01:51:03.874Z,0.00
2023-06-08T01:51:33.903Z,0.00
2023-06-08T01:52:03.843Z,0.00
2023-06-08T01:52:33.868Z,0.00
2023-06-08T01:53:03.868Z,0.00
2023-06-08T01:53:33.878Z,0.00
2023-06-08T01:54:03.848Z,0.00
2023-06-08T01:54:33.847Z,0.00
2023-06-08T01:55:03.820Z,0.00
2023-06-08T01:55:33.831Z,0.00
2023-06-08T01:56:03.852Z,0.00
2023-06-08T01:56:33.824Z,0.00
2023-06-08T01:57:03.802Z,0.00
2023-06-08T01:57:33.808Z,0.00
2023-06-08T01:58:04.602Z,0.00
2023-06-08T01:58:33.773Z,0.00
2023-06-08T01:59:03.808Z,0.00
2023-06-08T01:59:36.310Z,0.00
2023-06-08T02:00:04.240Z,0.00
2023-06-08T02:00:33.801Z,0.00
2023-06-08T02:01:03.796Z,0.00
2023-06-08T02:01:33.817Z,0.00
2023-06-08T02:02:03.804Z,0.00
2023-06-08T02:02:33.814Z,0.00
2023-06-08T02:03:03.782Z,0.00
2023-06-08T02:03:33.791Z,0.00
2023-06-08T02:04:03.716Z,0.00
2023-06-08T02:04:33.759Z,0.00
2023-06-08T02:05:03.765Z,0.00
2023-06-08T02:05:33.728Z,0.00
2023-06-08T02:06:03.731Z,0.00
2023-06-08T02:06:33.745Z,0.00
2023-06-08T02:07:03.704Z,0.00
2023-06-08T02:07:33.697Z,0.00
2023-06-08T02:08:03.682Z,0.00
2023-06-08T02:08:33.671Z,0.00
2023-06-08T02:09:03.671Z,0.00
2023-06-08T02:09:33.665Z,0.00
2023-06-08T02:10:04.094Z,0.00
2023-06-08T02:10:33.672Z,0.00
2023-06-08T02:11:03.662Z,0.00
2023-06-08T02:11:33.670Z,0.00
2023-06-08T02:12:03.689Z,0.00
2023-06-08T02:12:33.641Z,0.00
2023-06-08T02:13:03.627Z,0.00
2023-06-08T02:13:33.762Z,0.00
2023-06-08T02:14:03.820Z,0.00
2023-06-08T02:14:33.615Z,0.00
2023-06-08T02:15:03.618Z,0.00
2023-06-08T02:15:33.627Z,0.00
2023-06-08T02:16:03.606Z,0.00
2023-06-08T02:16:33.617Z,0.00
2023-06-08T02:17:03.656Z,0.00
2023-06-08T02:17:33.650Z,0.00
2023-06-08T02:18:03.677Z,0.00
2023-06-08T02:18:33.594Z,0.00
2023-06-08T02:19:03.611Z,0.00
2023-06-08T02:19:33.588Z,0.00
2023-06-08T02:20:04.014Z,0.00
2023-06-08T02:20:33.550Z,0.00
2023-06-08T02:21:03.562Z,0.00
2023-06-08T02:21:33.562Z,0.00
2023-06-08T02:22:03.554Z,0.00
2023-06-08T02:22:34.168Z,0.00
2023-06-08T02:23:03.554Z,0.00
2023-06-08T02:23:33.646Z,0.00
2023-06-08T02:24:03.638Z,0.00
2023-06-08T02:24:33.552Z,0.00
2023-06-08T02:25:03.551Z,0.00
2023-06-08T02:25:33.564Z,0.00
2023-06-08T02:26:03.494Z,0.00
2023-06-08T02:26:33.499Z,0.00
2023-06-08T02:27:03.501Z,0.00
2023-06-08T02:27:33.632Z,0.00
2023-06-08T02:28:03.689Z,0.00
2023-06-08T02:28:33.519Z,0.00
2023-06-08T02:29:03.475Z,0.00
2023-06-08T02:29:33.454Z,0.00
2023-06-08T02:30:03.591Z,0.00
2023-06-08T02:30:33.485Z,0.00
2023-06-08T02:31:03.479Z,0.00
2023-06-08T02:31:33.424Z,0.00
2023-06-08T02:32:03.400Z,1.00
2023-06-08T02:32:33.476Z,0.00
2023-06-08T02:33:03.591Z,0.00
2023-06-08T02:33:33.442Z,0.00
2023-06-08T02:34:03.425Z,0.00
2023-06-08T02:34:33.419Z,0.00
2023-06-08T02:35:03.431Z,0.00
2023-06-08T02:35:33.339Z,1.00
2023-06-08T02:36:03.346Z,1.00
2023-06-08T02:36:33.398Z,1.00
2023-06-08T02:37:03.327Z,1.00
2023-06-08T02:37:33.358Z,1.00
2023-06-08T02:38:03.496Z,0.00
2023-06-08T02:38:33.368Z,0.00
2023-06-08T02:39:03.368Z,0.00
2023-06-08T02:39:33.350Z,0.00
2023-06-08T02:40:03.644Z,0.00
2023-06-08T02:40:33.320Z,2.00
2023-06-08T02:41:03.280Z,1.00
2023-06-08T02:41:33.497Z,0.00
2023-06-08T02:42:03.519Z,0.00
2023-06-08T02:42:33.325Z,0.00
2023-06-08T02:43:03.300Z,1.00
2023-06-08T02:43:33.271Z,1.00
2023-06-08T02:44:03.307Z,0.00
2023-06-08T02:44:33.305Z,0.00
2023-06-08T02:45:03.326Z,0.00
2023-06-08T02:45:33.279Z,0.00
2023-06-08T02:46:03.319Z,0.00
2023-06-08T02:46:33.269Z,1.00
2023-06-08T02:47:03.221Z,1.00
2023-06-08T02:47:33.269Z,3.00
2023-06-08T02:48:03.269Z,3.00
2023-06-08T02:48:33.234Z,2.00
2023-06-08T02:49:03.190Z,4.00
2023-06-08T02:49:33.215Z,3.00
2023-06-08T02:50:03.334Z,3.00
2023-06-08T02:50:33.205Z,1.00
2023-06-08T02:51:03.221Z,1.00
2023-06-08T02:51:33.175Z,1.00
2023-06-08T02:52:03.167Z,1.00
2023-06-08T02:52:33.165Z,1.00
2023-06-08T02:53:03.160Z,2.00
2023-06-08T02:53:33.189Z,1.00
2023-06-08T02:54:03.142Z,2.00
2023-06-08T02:54:33.159Z,2.00
2023-06-08T02:55:03.160Z,2.00
2023-06-08T02:55:33.249Z,5.00
2023-06-08T02:56:03.321Z,3.00
2023-06-08T02:56:33.135Z,3.00
2023-06-08T02:57:03.114Z,3.00
2023-06-08T02:57:33.127Z,3.00
2023-06-08T02:58:03.623Z,4.00
2023-06-08T02:58:33.127Z,4.00
2023-06-08T02:59:04.205Z,4.00
2023-06-08T02:59:33.079Z,4.00
2023-06-08T03:00:03.203Z,4.00
2023-06-08T03:00:33.101Z,4.00
2023-06-08T03:01:20.245Z,4.00
2023-06-08T03:01:33.123Z,5.00
2023-06-08T03:02:03.150Z,5.00
2023-06-08T03:02:33.110Z,5.00
2023-06-08T03:03:03.098Z,6.00
2023-06-08T03:03:33.157Z,5.00
2023-06-08T03:04:03.103Z,6.00
2023-06-08T03:04:33.053Z,6.00
2023-06-08T03:05:03.157Z,7.00
2023-06-08T03:05:33.026Z,10.00
2023-06-08T03:06:03.053Z,8.00
2023-06-08T03:06:32.998Z,8.00
2023-06-08T03:07:03.009Z,8.00
2023-06-08T03:07:35.346Z,8.00
2023-06-08T03:08:02.989Z,9.00
2023-06-08T03:08:33.007Z,9.00
2023-06-08T03:09:03.029Z,10.00
2023-06-08T03:09:33.140Z,11.00
2023-06-08T03:10:03.178Z,10.00
2023-06-08T03:10:32.973Z,11.00
2023-06-08T03:11:02.960Z,11.00
2023-06-08T03:11:32.982Z,11.00
2023-06-08T03:12:03.017Z,12.00
2023-06-08T03:12:32.952Z,12.00
2023-06-08T03:13:04.836Z,13.00
2023-06-08T03:13:32.952Z,14.00
2023-06-08T03:14:02.977Z,17.00
2023-06-08T03:14:32.928Z,14.00
2023-06-08T03:15:03.051Z,16.00
2023-06-08T03:15:32.926Z,21.00
2023-06-08T03:16:02.995Z,22.00
2023-06-08T03:16:33.090Z,17.00
2023-06-08T03:17:02.919Z,19.00
2023-06-08T03:17:32.913Z,23.00
2023-06-08T03:18:02.945Z,24.00
2023-06-08T03:18:32.912Z,26.00
2023-06-08T03:19:02.886Z,24.00
2023-06-08T03:19:32.896Z,23.00
2023-06-08T03:20:03.765Z,27.00
2023-06-08T03:20:32.865Z,27.00
2023-06-08T03:21:02.859Z,28.00
2023-06-08T03:21:32.863Z,29.00
2023-06-08T03:22:02.850Z,29.00
2023-06-08T03:22:32.832Z,34.00
2023-06-08T03:23:02.851Z,34.00
2023-06-08T03:23:32.984Z,33.00
2023-06-08T03:24:03.093Z,37.00
2023-06-08T03:24:32.823Z,40.00
2023-06-08T03:25:02.875Z,40.00
2023-06-08T03:25:32.824Z,40.00
2023-06-08T03:26:02.823Z,38.00
2023-06-08T03:26:32.781Z,44.00
2023-06-08T03:27:02.792Z,46.00
2023-06-08T03:27:32.838Z,52.00
2023-06-08T03:28:02.780Z,50.00
2023-06-08T03:28:32.776Z,49.00
2023-06-08T03:29:02.762Z,49.00
2023-06-08T03:29:32.759Z,52.00
2023-06-08T03:30:02.838Z,52.00
2023-06-08T03:30:32.758Z,54.00
2023-06-08T03:31:02.758Z,54.00
2023-06-08T03:31:32.816Z,55.00
2023-06-08T03:32:02.967Z,57.00
2023-06-08T03:32:33.710Z,56.00
2023-06-08T03:33:02.790Z,57.00
2023-06-08T03:33:32.725Z,59.00
2023-06-08T03:34:02.718Z,59.00
2023-06-08T03:34:32.724Z,60.00
2023-06-08T03:35:02.774Z,64.00
2023-06-08T03:35:32.693Z,62.00
2023-06-08T03:36:02.709Z,63.00
2023-06-08T03:36:32.708Z,70.00
2023-06-08T03:37:02.676Z,66.00
2023-06-08T03:37:32.801Z,65.00
2023-06-08T03:38:02.923Z,70.00
2023-06-08T03:38:32.657Z,71.00
2023-06-08T03:39:02.664Z,77.00
2023-06-08T03:39:32.654Z,74.00
2023-06-08T03:40:02.674Z,81.00
2023-06-08T03:40:32.714Z,79.00
2023-06-08T03:41:02.670Z,86.00
2023-06-08T03:41:32.648Z,91.00
2023-06-08T03:42:02.628Z,93.00
2023-06-08T03:42:32.647Z,92.00
2023-06-08T03:43:02.632Z,95.00
2023-06-08T03:43:32.607Z,96.00
2023-06-08T03:44:02.608Z,100.00
2023-06-08T03:44:32.602Z,100.00
2023-06-08T03:45:02.605Z,102.00
2023-06-08T03:45:32.594Z,104.00
2023-06-08T03:46:02.643Z,112.00
2023-06-08T03:46:32.677Z,110.00
2023-06-08T03:47:02.629Z,108.00
2023-06-08T03:47:32.658Z,119.00
2023-06-08T03:48:02.613Z,120.00
2023-06-08T03:48:32.595Z,117.00
2023-06-08T03:49:02.578Z,119.00
2023-06-08T03:49:32.637Z,124.00
2023-06-08T03:50:02.583Z,124.00
2023-06-08T03:50:32.546Z,127.00
2023-06-08T03:51:04.790Z,127.00
2023-06-08T03:51:32.659Z,128.00
2023-06-08T03:52:02.721Z,133.00
2023-06-08T03:52:32.522Z,134.00
2023-06-08T03:53:02.516Z,133.00
2023-06-08T03:53:32.523Z,133.00
2023-06-08T03:54:02.512Z,135.00
2023-06-08T03:54:32.518Z,133.00
2023-06-08T03:55:02.509Z,133.00
2023-06-08T03:55:32.508Z,131.00
2023-06-08T03:56:02.529Z,131.00
2023-06-08T03:56:32.473Z,135.00
2023-06-08T03:57:02.461Z,132.00
2023-06-08T03:57:32.492Z,134.00
2023-06-08T03:58:02.459Z,137.00
2023-06-08T03:58:32.501Z,140.00
2023-06-08T03:59:02.476Z,143.00
2023-06-08T03:59:32.465Z,144.00
2023-06-08T04:00:02.465Z,154.00
2023-06-08T04:00:32.454Z,156.00
2023-06-08T04:01:02.473Z,160.00
2023-06-08T04:01:32.452Z,165.00
2023-06-08T04:02:02.524Z,166.00
2023-06-08T04:02:33.197Z,164.00
2023-06-08T04:03:02.540Z,170.00
2023-06-08T04:03:32.472Z,179.00
2023-06-08T04:04:02.453Z,179.00
2023-06-08T04:04:32.604Z,182.00
2023-06-08T04:05:02.395Z,182.00
2023-06-08T04:05:32.505Z,190.00
2023-06-08T04:06:02.609Z,189.00
2023-06-08T04:06:32.454Z,190.00
2023-06-08T04:07:02.402Z,198.00
2023-06-08T04:07:32.364Z,201.00
2023-06-08T04:08:02.380Z,208.00
2023-06-08T04:08:32.358Z,208.00
2023-06-08T04:09:03.146Z,209.00
2023-06-08T04:09:32.367Z,215.00
2023-06-08T04:10:02.448Z,215.00
2023-06-08T04:10:32.330Z,220.00
2023-06-08T04:11:02.346Z,219.00
2023-06-08T04:11:32.363Z,229.00
2023-06-08T04:12:02.358Z,232.00
2023-06-08T04:12:32.358Z,234.00
2023-06-08T04:13:02.318Z,240.00
2023-06-08T04:13:32.308Z,249.00
2023-06-08T04:14:02.303Z,248.00
2023-06-08T04:14:32.288Z,252.00
2023-06-08T04:15:02.380Z,256.00
2023-06-08T04:15:32.296Z,259.00
2023-06-08T04:16:02.324Z,259.00
2023-06-08T04:16:32.354Z,264.00
2023-06-08T04:17:02.266Z,265.00
2023-06-08T04:17:32.284Z,266.00
2023-06-08T04:18:02.252Z,267.00
2023-06-08T04:18:32.243Z,271.00
2023-06-08T04:19:02.257Z,274.00
2023-06-08T04:19:32.378Z,278.00
2023-06-08T04:20:02.485Z,276.00
2023-06-08T04:20:32.225Z,279.00
2023-06-08T04:21:02.212Z,277.00
2023-06-08T04:21:32.402Z,280.00
2023-06-08T04:22:02.231Z,273.00
2023-06-08T04:22:32.203Z,277.00
2023-06-08T04:23:02.268Z,272.00
2023-06-08T04:23:32.307Z,270.00
2023-06-08T04:24:02.236Z,269.00
2023-06-08T04:24:32.305Z,273.00
2023-06-08T04:25:02.162Z,271.00
2023-06-08T04:25:32.162Z,276.00
2023-06-08T04:26:02.178Z,271.00
2023-06-08T04:26:32.191Z,270.00
2023-06-08T04:27:02.162Z,277.00
2023-06-08T04:27:32.184Z,272.00
2023-06-08T04:28:02.142Z,271.00
2023-06-08T04:28:32.138Z,268.00
2023-06-08T04:29:02.202Z,271.00
2023-06-08T04:29:32.161Z,275.00
2023-06-08T04:30:02.142Z,272.00
2023-06-08T04:30:32.115Z,273.00
2023-06-08T04:31:02.207Z,268.00
2023-06-08T04:31:32.262Z,269.00
2023-06-08T04:32:02.118Z,268.00
2023-06-08T04:32:32.108Z,272.00
2023-06-08T04:33:02.172Z,274.00
2023-06-08T04:33:32.204Z,278.00
2023-06-08T04:34:02.273Z,277.00
2023-06-08T04:34:32.113Z,275.00
2023-06-08T04:35:02.064Z,279.00
2023-06-08T04:35:32.090Z,272.00
2023-06-08T04:36:02.053Z,280.00
2023-06-08T04:36:32.096Z,278.00
2023-06-08T04:37:02.046Z,289.00
2023-06-08T04:37:32.064Z,288.00
2023-06-08T04:38:02.023Z,289.00
2023-06-08T04:38:32.034Z,294.00
2023-06-08T04:39:02.035Z,298.00
2023-06-08T04:39:32.015Z,305.00
2023-06-08T04:40:02.025Z,301.00
2023-06-08T04:40:32.051Z,308.00
2023-06-08T04:41:02.004Z,311.00
2023-06-08T04:41:32.032Z,325.00
2023-06-08T04:42:02.025Z,321.00
2023-06-08T04:42:31.986Z,327.00
2023-06-08T04:43:02.662Z,326.00
2023-06-08T04:43:32.005Z,324.00
2023-06-08T04:44:01.989Z,327.00
2023-06-08T04:44:31.992Z,332.00
2023-06-08T04:45:01.961Z,323.00
2023-06-08T04:45:31.967Z,317.00
2023-06-08T04:46:02.120Z,308.00
2023-06-08T04:46:32.192Z,306.00
2023-06-08T04:47:01.965Z,298.00
2023-06-08T04:47:32.129Z,293.00
2023-06-08T04:48:02.201Z,290.00
2023-06-08T04:48:31.965Z,293.00
2023-06-08T04:49:01.914Z,297.00
2023-06-08T04:49:31.909Z,300.00
2023-06-08T04:50:01.962Z,300.00
2023-06-08T04:50:31.936Z,298.00
2023-06-08T04:51:01.898Z,301.00
2023-06-08T04:51:31.910Z,302.00
2023-06-08T04:52:01.914Z,296.00
2023-06-08T04:52:31.881Z,296.00
2023-06-08T04:53:01.879Z,298.00
2023-06-08T04:53:31.869Z,304.00
2023-06-08T04:54:01.893Z,299.00
2023-06-08T04:54:33.540Z,303.00
2023-06-08T04:55:01.877Z,312.00
2023-06-08T04:55:31.883Z,309.00
2023-06-08T04:56:01.916Z,315.00
2023-06-08T04:56:31.850Z,320.00
2023-06-08T04:57:01.979Z,330.00
2023-06-08T04:57:31.857Z,340.00
2023-06-08T04:58:01.841Z,349.00
2023-06-08T04:58:31.863Z,361.00
2023-06-08T04:59:01.831Z,375.00
2023-06-08T04:59:31.814Z,381.00
2023-06-08T05:00:01.810Z,405.00
2023-06-08T05:00:31.784Z,413.00
2023-06-08T05:01:02.732Z,416.00
2023-06-08T05:01:31.977Z,431.00
2023-06-08T05:02:01.984Z,439.00
2023-06-08T05:02:31.817Z,443.00
2023-06-08T05:03:01.963Z,445.00
2023-06-08T05:03:31.854Z,448.00
2023-06-08T05:04:01.851Z,459.00
2023-06-08T05:04:31.755Z,452.00
2023-06-08T05:05:01.771Z,470.00
2023-06-08T05:05:31.777Z,476.00
2023-06-08T05:06:01.790Z,484.00
2023-06-08T05:06:31.795Z,496.00
2023-06-08T05:07:02.659Z,510.00
2023-06-08T05:07:31.726Z,509.00
2023-06-08T05:08:02.674Z,525.00
2023-06-08T05:08:31.700Z,533.00
2023-06-08T05:09:01.748Z,539.00
2023-06-08T05:09:31.716Z,550.00
2023-06-08T05:10:01.712Z,550.00
2023-06-08T05:10:31.717Z,559.00
2023-06-08T05:11:01.681Z,564.00
2023-06-08T05:11:31.681Z,582.00
2023-06-08T05:12:01.687Z,581.00
2023-06-08T05:12:31.670Z,580.00
2023-06-08T05:13:01.692Z,587.00
2023-06-08T05:13:31.674Z,595.00
2023-06-08T05:14:01.664Z,590.00
2023-06-08T05:14:31.680Z,596.00
2023-06-08T05:15:01.635Z,592.00
2023-06-08T05:15:31.746Z,583.00
2023-06-08T05:16:01.813Z,576.00
2023-06-08T05:16:31.707Z,577.00
2023-06-08T05:17:01.681Z,562.00
2023-06-08T05:17:31.720Z,567.00
2023-06-08T05:18:01.718Z,564.00
2023-06-08T05:18:31.609Z,568.00
2023-06-08T05:19:01.622Z,570.00
2023-06-08T05:19:31.677Z,559.00
2023-06-08T05:20:01.595Z,564.00
2023-06-08T05:20:31.684Z,564.00
2023-06-08T05:21:01.578Z,567.00
2023-06-08T05:21:32.160Z,565.00
2023-06-08T05:22:01.597Z,559.00
2023-06-08T05:22:31.550Z,563.00
2023-06-08T05:23:01.606Z,568.00
2023-06-08T05:23:31.660Z,561.00
2023-06-08T05:24:01.552Z,557.00
2023-06-08T05:24:31.541Z,555.00
2023-06-08T05:25:01.541Z,534.00
2023-06-08T05:25:31.543Z,543.00
2023-06-08T05:26:01.526Z,543.00
2023-06-08T05:26:31.620Z,540.00
2023-06-08T05:27:01.515Z,543.00
2023-06-08T05:27:31.528Z,543.00
2023-06-08T05:28:01.507Z,553.00
2023-06-08T05:28:31.537Z,545.00
2023-06-08T05:29:01.493Z,559.00
2023-06-08T05:29:31.697Z,549.00
2023-06-08T05:30:02.002Z,570.00
2023-06-08T05:30:31.485Z,588.00
2023-06-08T05:31:01.537Z,593.00
2023-06-08T05:31:31.560Z,619.00
2023-06-08T05:32:01.450Z,640.00
2023-06-08T05:32:31.468Z,628.00
2023-06-08T05:33:01.649Z,631.00
2023-06-08T05:33:31.480Z,639.00
2023-06-08T05:34:01.473Z,643.00
2023-06-08T05:34:31.442Z,630.00
2023-06-08T05:35:01.450Z,641.00
2023-06-08T05:35:31.430Z,644.00
2023-06-08T05:36:05.256Z,627.00
2023-06-08T05:36:31.444Z,628.00
2023-06-08T05:37:01.495Z,633.00
2023-06-08T05:37:31.412Z,636.00
2023-06-08T05:38:01.426Z,633.00
2023-06-08T05:38:31.393Z,639.00
2023-06-08T05:39:01.422Z,649.00
2023-06-08T05:39:31.467Z,656.00
2023-06-08T05:40:01.384Z,664.00
2023-06-08T05:40:31.369Z,669.00
2023-06-08T05:41:01.367Z,683.00
2023-06-08T05:41:31.468Z,681.00
2023-06-08T05:42:01.362Z,682.00
2023-06-08T05:42:31.358Z,692.00
2023-06-08T05:43:01.350Z,691.00
2023-06-08T05:43:31.472Z,700.00
2023-06-08T05:44:01.546Z,687.00
2023-06-08T05:44:31.348Z,691.00
2023-06-08T05:45:01.311Z,679.00
2023-06-08T05:45:31.363Z,667.00
2023-06-08T05:46:01.303Z,665.00
2023-06-08T05:46:31.329Z,659.00
2023-06-08T05:47:01.300Z,651.00
2023-06-08T05:47:34.818Z,643.00
2023-06-08T05:48:01.398Z,638.00
2023-06-08T05:48:31.358Z,629.00
2023-06-08T05:49:01.308Z,621.00
2023-06-08T05:49:31.290Z,615.00
2023-06-08T05:50:01.268Z,592.00
2023-06-08T05:50:31.261Z,588.00
2023-06-08T05:51:01.268Z,576.00
2023-06-08T05:51:31.292Z,569.00
2023-06-08T05:52:01.281Z,555.00
2023-06-08T05:52:31.233Z,553.00
2023-06-08T05:53:01.245Z,548.00
2023-06-08T05:53:31.271Z,549.00
2023-06-08T05:54:01.219Z,537.00
2023-06-08T05:54:31.221Z,537.00
2023-06-08T05:55:01.233Z,543.00
2023-06-08T05:55:31.212Z,541.00
2023-06-08T05:56:01.231Z,548.00
2023-06-08T05:56:31.612Z,537.00
2023-06-08T05:57:01.204Z,542.00
2023-06-08T05:57:31.354Z,555.00
2023-06-08T05:58:01.370Z,571.00
2023-06-08T05:58:45.229Z,581.00
2023-06-08T05:59:01.171Z,572.00
2023-06-08T05:59:31.180Z,602.00
2023-06-08T06:00:01.310Z,610.00
2023-06-08T06:00:31.173Z,602.00
2023-06-08T06:01:01.169Z,620.00
2023-06-08T06:01:31.176Z,594.00
2023-06-08T06:02:01.148Z,704.00
2023-06-08T06:02:31.245Z,701.00
2023-06-08T06:03:04.060Z,729.00
2023-06-08T06:03:31.270Z,740.00
2023-06-08T06:04:01.307Z,747.00
2023-06-08T06:04:37.477Z,753.00
2023-06-08T06:05:01.246Z,753.00
2023-06-08T06:05:31.151Z,763.00
2023-06-08T06:06:01.121Z,777.00
2023-06-08T06:06:31.104Z,765.00
2023-06-08T06:07:01.135Z,768.00
2023-06-08T06:07:31.118Z,779.00
2023-06-08T06:08:01.115Z,792.00
2023-06-08T06:08:31.100Z,790.00
2023-06-08T06:09:01.115Z,804.00
2023-06-08T06:09:31.075Z,795.00
2023-06-08T06:10:01.043Z,809.00
2023-06-08T06:10:31.159Z,795.00
2023-06-08T06:11:01.045Z,797.00
2023-06-08T06:11:31.154Z,808.00
2023-06-08T06:12:01.250Z,799.00
2023-06-08T06:12:31.110Z,791.00
2023-06-08T06:13:01.105Z,801.00
2023-06-08T06:13:31.063Z,794.00
2023-06-08T06:14:01.045Z,802.00
2023-06-08T06:14:31.065Z,812.00
2023-06-08T06:15:01.064Z,819.00
2023-06-08T06:15:31.016Z,824.00
2023-06-08T06:16:01.132Z,844.00
2023-06-08T06:16:31.034Z,852.00
2023-06-08T06:17:31.153Z,892.00
2023-06-08T06:18:01.053Z,880.00
2023-06-08T06:18:31.065Z,901.00
2023-06-08T06:19:01.016Z,884.00
2023-06-08T06:19:30.989Z,884.00
2023-06-08T06:20:00.980Z,885.00
2023-06-08T06:20:31.058Z,835.00
2023-06-08T06:21:00.952Z,880.00
2023-06-08T06:21:30.996Z,837.00
2023-06-08T06:22:00.921Z,813.00
2023-06-08T06:22:30.966Z,810.00
2023-06-08T06:23:00.920Z,798.00
2023-06-08T06:23:30.921Z,799.00
2023-06-08T06:24:00.981Z,793.00
2023-06-08T06:24:30.924Z,790.00
2023-06-08T06:25:00.897Z,789.00
2023-06-08T06:25:31.027Z,797.00
2023-06-08T06:26:01.091Z,781.00
2023-06-08T06:26:30.903Z,772.00
2023-06-08T06:27:00.884Z,751.00
2023-06-08T06:27:30.887Z,752.00